createdAt,value
2019-01-04T00:00:42.597Z,80.60
2019-01-04T00:03:10.425Z,46.57
2019-01-04T00:05:38.414Z,52.40
2019-01-04T00:08:05.876Z,69.13
2019-01-04T00:10:33.276Z,104.67
2019-01-04T00:13:00.999Z,77.07
2019-01-04T00:15:29.029Z,87.53
2019-01-04T00:17:56.430Z,98.83
2019-01-04T00:20:23.997Z,134.77
2019-01-04T00:22:51.792Z,115.77
2019-01-04T00:25:19.487Z,69.17
2019-01-04T00:27:47.833Z,123.63
2019-01-04T00:30:16.101Z,139.10
2019-01-04T00:32:44.240Z,63.17
2019-01-04T00:35:12.042Z,154.10
2019-01-04T00:37:40.072Z,67.97
2019-01-04T00:40:08.019Z,110.17
2019-01-04T00:42:36.092Z,98.87
2019-01-04T00:45:04.380Z,89.00
2019-01-04T00:47:32.232Z,127.27
2019-01-04T00:49:59.898Z,56.23
2019-01-04T00:52:27.772Z,79.90
2019-01-04T00:55:01.497Z,108.93
2019-01-04T00:58:40.022Z,76.73
2019-01-04T01:02:22.280Z,82.30
2019-01-04T01:05:46.959Z,66.83
2019-01-04T01:08:57.186Z,51.17
2019-01-04T01:12:20.012Z,49.70
2019-01-04T01:15:41.126Z,107.17
2019-01-04T01:19:14.165Z,117.27
2019-01-04T01:22:17.249Z,106.10
2019-01-04T01:25:47.978Z,126.80
2019-01-04T01:29:09.144Z,117.60
2019-01-04T01:31:53.859Z,83.50
2019-01-04T01:35:04.391Z,52.60
2019-01-04T01:38:19.033Z,106.70
2019-01-04T01:41:38.434Z,75.53
2019-01-04T01:45:02.351Z,76.20
2019-01-04T01:47:40.328Z,67.93
2019-01-04T01:51:09.164Z,100.77
2019-01-04T01:53:44.173Z,87.80
2019-01-04T01:56:11.860Z,80.13
2019-01-04T01:58:39.247Z,67.40
2019-01-04T02:01:06.877Z,84.40
2019-01-04T02:03:34.500Z,75.10
2019-01-04T02:06:01.760Z,72.03
2019-01-04T02:08:29.252Z,65.97
2019-01-04T02:10:56.365Z,49.83
2019-01-04T02:13:24.077Z,59.40
2019-01-04T02:15:51.331Z,63.10
2019-01-04T02:18:18.824Z,53.17
2019-01-04T02:20:46.703Z,55.73
2019-01-04T02:23:14.236Z,63.43
2019-01-04T02:25:41.661Z,49.60
2019-01-04T02:28:09.129Z,43.87
2019-01-04T02:30:36.692Z,47.40
2019-01-04T02:33:04.089Z,46.00
2019-01-04T02:35:31.367Z,40.93
2019-01-04T02:37:58.846Z,44.70
2019-01-04T02:40:26.459Z,58.43
2019-01-04T02:42:53.981Z,53.13
2019-01-04T02:45:21.701Z,47.13
2019-01-04T02:47:49.640Z,51.93
2019-01-04T02:50:17.319Z,54.17
2019-01-04T02:52:44.836Z,58.63
2019-01-04T02:55:12.781Z,50.93
2019-01-04T02:57:40.553Z,53.13
2019-01-04T03:00:08.230Z,59.97
2019-01-04T03:02:35.766Z,57.47
2019-01-04T03:05:03.606Z,55.87
2019-01-04T03:07:31.266Z,57.27
2019-01-04T03:09:58.506Z,46.77
2019-01-04T03:12:26.599Z,51.07
2019-01-04T03:14:53.748Z,72.87
2019-01-04T03:17:21.358Z,47.17
2019-01-04T03:19:49.513Z,47.87
2019-01-04T03:22:16.624Z,60.33
2019-01-04T03:24:44.403Z,58.27
2019-01-04T03:27:12.374Z,35.30
2019-01-04T03:29:39.747Z,35.67
2019-01-04T03:32:07.258Z,40.00
2019-01-04T03:34:35.122Z,40.00
2019-01-04T03:37:02.639Z,40.03
2019-01-04T03:39:30.123Z,35.17
2019-01-04T03:41:58.137Z,31.00
2019-01-04T03:44:26.104Z,37.93
2019-01-04T03:46:53.246Z,29.07
2019-01-04T03:49:20.592Z,25.70
2019-01-04T03:51:48.052Z,29.00
2019-01-04T03:54:15.731Z,28.83
2019-01-04T03:56:43.501Z,23.33
2019-01-04T03:59:11.477Z,32.07
2019-01-04T04:01:39.309Z,28.57
2019-01-04T04:04:06.822Z,27.03
2019-01-04T04:06:34.163Z,29.07
2019-01-04T04:09:01.632Z,23.50
2019-01-04T04:11:30.143Z,31.10
2019-01-04T04:13:57.602Z,29.83
2019-01-04T04:16:25.323Z,26.83
2019-01-04T04:18:53.639Z,29.73
2019-01-04T04:21:20.865Z,27.13
2019-01-04T04:23:48.753Z,24.67
2019-01-04T04:26:16.465Z,32.13
2019-01-04T04:28:43.657Z,29.77
2019-01-04T04:31:11.526Z,26.63
2019-01-04T04:33:39.486Z,28.90
2019-01-04T04:36:06.625Z,26.77
2019-01-04T04:38:34.226Z,26.80
2019-01-04T04:41:02.230Z,26.13
2019-01-04T04:43:29.740Z,26.53
2019-01-04T04:45:57.040Z,28.23
2019-01-04T04:48:24.832Z,27.93
2019-01-04T04:50:52.648Z,30.77
2019-01-04T04:53:20.458Z,33.03
2019-01-04T04:55:48.006Z,30.80
2019-01-04T04:58:15.769Z,33.77
2019-01-04T05:00:44.120Z,34.23
2019-01-04T05:03:12.086Z,31.53
2019-01-04T05:05:39.207Z,30.43
2019-01-04T05:08:06.474Z,37.20
2019-01-04T05:10:34.345Z,57.30
2019-01-04T05:13:02.008Z,64.40
2019-01-04T05:15:29.443Z,43.50
2019-01-04T05:17:57.498Z,48.50
2019-01-04T05:20:24.730Z,33.90
2019-01-04T05:22:52.147Z,42.47
2019-01-04T05:25:19.808Z,39.33
2019-01-04T05:27:46.964Z,35.83
2019-01-04T05:30:14.152Z,35.30
2019-01-04T05:32:41.994Z,34.70
2019-01-04T05:35:09.691Z,34.30
2019-01-04T05:37:36.843Z,31.27
2019-01-04T05:40:05.405Z,33.00
2019-01-04T05:42:32.864Z,28.10
2019-01-04T05:45:00.236Z,26.83
2019-01-04T05:47:27.786Z,33.63
2019-01-04T05:49:55.030Z,27.30
2019-01-04T05:52:23.026Z,27.87
2019-01-04T05:54:51.058Z,27.57
2019-01-04T05:57:18.543Z,29.83
2019-01-04T05:59:46.439Z,29.53
2019-01-04T06:02:14.022Z,29.03
2019-01-04T06:04:41.544Z,30.53
2019-01-04T06:07:09.239Z,29.63
2019-01-04T06:09:37.110Z,28.53
2019-01-04T06:12:05.159Z,27.33
2019-01-04T06:14:32.694Z,27.10
2019-01-04T06:16:59.900Z,28.27
2019-01-04T06:19:27.840Z,24.07
2019-01-04T06:21:55.861Z,20.60
2019-01-04T06:24:23.571Z,22.97
2019-01-04T06:26:51.356Z,20.70
2019-01-04T06:29:18.822Z,23.27
2019-01-04T06:31:46.728Z,22.43
2019-01-04T06:34:14.852Z,23.70
2019-01-04T06:36:41.981Z,27.57
2019-01-04T06:39:09.533Z,21.27
2019-01-04T06:41:37.356Z,27.47
2019-01-04T06:44:05.213Z,25.47
2019-01-04T06:46:32.594Z,29.90
2019-01-04T06:49:00.101Z,31.57
2019-01-04T06:51:27.983Z,26.50
2019-01-04T06:53:56.627Z,30.63
2019-01-04T06:56:23.999Z,53.40
2019-01-04T06:58:51.560Z,47.80
2019-01-04T07:01:19.182Z,58.73
2019-01-04T07:03:47.068Z,54.13
2019-01-04T07:06:14.570Z,60.50
2019-01-04T07:08:42.110Z,69.80
2019-01-04T07:11:09.494Z,44.27
2019-01-04T07:13:36.996Z,41.23
2019-01-04T07:16:04.239Z,24.30
2019-01-04T07:18:31.520Z,31.53
2019-01-04T07:20:59.372Z,30.20
2019-01-04T07:23:26.612Z,28.37
2019-01-04T07:25:54.107Z,25.50
2019-01-04T07:28:21.442Z,29.70
2019-01-04T07:30:48.900Z,38.57
2019-01-04T07:33:16.434Z,31.17
2019-01-04T07:35:44.466Z,36.00
2019-01-04T07:38:12.083Z,24.20
2019-01-04T07:40:39.180Z,37.17
2019-01-04T07:43:06.846Z,28.10
2019-01-04T07:45:34.181Z,28.07
2019-01-04T07:48:02.036Z,28.20
2019-01-04T07:50:29.621Z,36.03
2019-01-04T07:52:57.365Z,30.30
2019-01-04T07:55:25.037Z,28.63
2019-01-04T07:57:52.605Z,31.37
2019-01-04T08:00:20.113Z,29.97
2019-01-04T08:02:57.299Z,26.57
2019-01-04T08:05:28.676Z,29.23
2019-01-04T08:07:56.618Z,27.10
2019-01-04T08:10:24.178Z,33.30
2019-01-04T08:12:51.804Z,45.77
2019-01-04T08:15:19.181Z,36.13
2019-01-04T08:17:46.787Z,32.40
2019-01-04T08:20:14.023Z,34.10
2019-01-04T08:22:42.016Z,34.40
2019-01-04T08:25:09.813Z,30.77
2019-01-04T08:27:37.640Z,35.93
2019-01-04T08:30:09.828Z,31.60
2019-01-04T08:32:40.506Z,34.00
2019-01-04T08:35:07.801Z,36.23
2019-01-04T08:37:35.448Z,34.07
2019-01-04T08:40:04.278Z,36.20
2019-01-04T08:42:31.492Z,30.67
2019-01-04T08:44:58.981Z,32.60
2019-01-04T08:47:26.357Z,31.37
2019-01-04T08:49:54.362Z,34.13
2019-01-04T08:52:21.480Z,32.00
2019-01-04T08:54:49.029Z,37.03
2019-01-04T08:57:16.416Z,27.10
2019-01-04T08:59:44.306Z,29.13
2019-01-04T09:02:11.731Z,23.53
2019-01-04T09:04:39.386Z,29.43
2019-01-04T09:07:06.832Z,25.60
2019-01-04T09:09:34.568Z,31.27
2019-01-04T09:12:02.335Z,26.53
2019-01-04T09:14:29.727Z,26.63
2019-01-04T09:16:57.266Z,23.10
2019-01-04T09:19:25.129Z,27.70
2019-01-04T09:21:52.412Z,32.73
2019-01-04T09:24:20.053Z,32.10
2019-01-04T09:26:48.538Z,26.77
2019-01-04T09:29:15.781Z,30.03
2019-01-04T09:31:42.873Z,35.03
2019-01-04T09:34:10.835Z,26.30
2019-01-04T09:36:38.393Z,30.47
2019-01-04T09:39:07.433Z,38.60
2019-01-04T09:41:46.921Z,36.17
2019-01-04T09:44:14.183Z,38.30
2019-01-04T09:46:42.008Z,38.37
2019-01-04T09:49:09.314Z,39.57
2019-01-04T09:51:37.148Z,44.97
2019-01-04T09:54:04.869Z,37.97
2019-01-04T09:56:32.801Z,37.67
2019-01-04T09:59:01.108Z,44.80
2019-01-04T10:01:28.884Z,39.07
2019-01-04T10:03:56.128Z,45.43
2019-01-04T10:06:23.717Z,36.27
2019-01-04T10:08:51.580Z,48.83
2019-01-04T10:11:18.727Z,51.57
2019-01-04T10:13:46.149Z,44.83
2019-01-04T10:16:13.326Z,42.60
2019-01-04T10:18:40.637Z,50.80
2019-01-04T10:21:08.317Z,48.27
2019-01-04T10:23:36.530Z,48.73
2019-01-04T10:26:04.165Z,41.30
2019-01-04T10:28:31.557Z,38.70
2019-01-04T10:30:59.407Z,32.77
2019-01-04T10:33:27.040Z,29.93
2019-01-04T10:35:54.612Z,36.47
2019-01-04T10:38:21.937Z,32.53
2019-01-04T10:40:49.363Z,39.63
2019-01-04T10:43:17.398Z,32.73
2019-01-04T10:45:45.345Z,37.70
2019-01-04T10:48:12.891Z,28.27
2019-01-04T10:50:40.537Z,30.37
2019-01-04T10:53:07.677Z,28.67
2019-01-04T10:55:35.641Z,27.83
2019-01-04T10:58:02.909Z,24.93
2019-01-04T11:00:30.737Z,27.10
2019-01-04T11:02:58.762Z,25.90
2019-01-04T11:05:26.401Z,26.97
2019-01-04T11:07:54.072Z,30.43
2019-01-04T11:10:21.843Z,22.57
2019-01-04T11:12:49.208Z,19.83
2019-01-04T11:15:16.932Z,22.57
2019-01-04T11:17:45.211Z,22.30
2019-01-04T11:20:40.378Z,26.70
2019-01-04T11:23:43.885Z,23.30
2019-01-04T11:26:18.443Z,26.40
2019-01-04T11:29:37.372Z,24.90
2019-01-04T11:32:28.600Z,21.37
2019-01-04T11:35:26.210Z,20.87
2019-01-04T11:38:16.013Z,14.93
2019-01-04T11:41:09.221Z,15.80
2019-01-04T11:44:43.967Z,18.83
2019-01-04T11:48:03.770Z,17.73
2019-01-04T11:51:13.780Z,21.53
2019-01-04T11:53:42.430Z,18.10
2019-01-04T11:56:10.276Z,17.27
2019-01-04T11:58:37.658Z,19.33
2019-01-04T12:01:05.615Z,13.67
2019-01-04T12:03:33.122Z,19.07
2019-01-04T12:06:03.563Z,18.90
2019-01-04T12:08:31.138Z,16.50
2019-01-04T12:10:58.694Z,16.67
2019-01-04T12:13:26.576Z,20.60
2019-01-04T12:15:54.331Z,16.63
2019-01-04T12:18:22.193Z,16.70
2019-01-04T12:20:49.698Z,16.83
2019-01-04T12:23:17.408Z,16.43
2019-01-04T12:25:44.541Z,15.43
2019-01-04T12:28:12.571Z,12.87
2019-01-04T12:30:40.601Z,11.90
2019-01-04T12:33:09.126Z,17.30
2019-01-04T12:35:36.530Z,17.37
2019-01-04T12:38:04.152Z,12.60
2019-01-04T12:40:31.836Z,14.27
2019-01-04T12:42:59.679Z,12.83
2019-01-04T12:45:27.569Z,17.57
2019-01-04T12:47:54.753Z,14.50
2019-01-04T12:50:22.094Z,15.53
2019-01-04T12:52:49.617Z,14.33
2019-01-04T12:55:16.885Z,16.37
2019-01-04T12:57:44.389Z,12.43
2019-01-04T13:00:12.862Z,15.67
2019-01-04T13:02:40.917Z,9.97
2019-01-04T13:05:08.241Z,10.73
2019-01-04T13:07:35.391Z,10.80
2019-01-04T13:10:03.429Z,10.63
2019-01-04T13:12:30.924Z,9.90
2019-01-04T13:14:58.931Z,8.27
2019-01-04T13:17:26.194Z,7.13
2019-01-04T13:19:53.496Z,10.53
2019-01-04T13:22:21.621Z,8.90
2019-01-04T13:24:49.333Z,9.20
2019-01-04T13:27:16.801Z,9.60
2019-01-04T13:29:44.607Z,8.47
2019-01-04T13:32:12.788Z,9.47
2019-01-04T13:34:40.156Z,7.40
2019-01-04T13:37:07.704Z,7.30
2019-01-04T13:39:34.969Z,9.33
2019-01-04T13:42:02.509Z,10.57
2019-01-04T13:44:30.035Z,10.03
2019-01-04T13:46:57.144Z,7.17
2019-01-04T13:49:24.414Z,10.30
2019-01-04T13:51:52.642Z,11.17
2019-01-04T13:54:20.078Z,10.57
2019-01-04T13:56:47.768Z,10.77
2019-01-04T13:59:15.349Z,10.43
2019-01-04T14:01:43.477Z,10.27
2019-01-04T14:04:10.574Z,8.77
2019-01-04T14:06:38.482Z,9.83
2019-01-04T14:09:07.113Z,9.80
2019-01-04T14:11:35.062Z,9.13
2019-01-04T14:14:02.426Z,10.83
2019-01-04T14:16:30.073Z,8.80
2019-01-04T14:18:57.876Z,11.97
2019-01-04T14:21:25.159Z,10.87
2019-01-04T14:23:53.313Z,8.47
2019-01-04T14:26:20.580Z,11.77
2019-01-04T14:28:48.444Z,9.80
2019-01-04T14:31:15.577Z,9.23
2019-01-04T14:33:45.855Z,8.00
2019-01-04T14:36:13.764Z,7.67
2019-01-04T14:38:41.524Z,7.37
2019-01-04T14:41:09.490Z,7.80
2019-01-04T14:43:36.786Z,8.27
2019-01-04T14:46:04.467Z,9.17
2019-01-04T14:48:32.133Z,9.40
2019-01-04T14:51:00.016Z,7.50
2019-01-04T14:53:27.589Z,7.47
2019-01-04T14:55:55.127Z,16.83
2019-01-04T14:58:22.487Z,8.43
2019-01-04T15:00:50.277Z,7.28
2019-01-04T15:03:18.906Z,10.57
2019-01-04T15:05:50.567Z,9.37
2019-01-04T15:08:18.149Z,6.70
2019-01-04T15:10:47.172Z,7.90
2019-01-04T15:13:15.220Z,5.43
2019-01-04T15:15:42.695Z,7.50
2019-01-04T15:18:11.117Z,6.20
2019-01-04T15:20:38.754Z,7.23
2019-01-04T15:23:06.340Z,6.87
2019-01-04T15:25:33.968Z,10.00
2019-01-04T15:28:02.115Z,9.53
2019-01-04T15:30:30.884Z,9.10
2019-01-04T15:32:58.874Z,11.47
2019-01-04T15:35:27.070Z,10.63
2019-01-04T15:37:55.679Z,9.10
2019-01-04T15:40:23.746Z,6.27
2019-01-04T15:42:51.488Z,8.43
2019-01-04T15:45:20.069Z,10.83
2019-01-04T15:47:48.825Z,8.17
2019-01-04T15:50:17.420Z,7.63
2019-01-04T15:52:44.545Z,7.57
2019-01-04T15:55:13.385Z,7.27
2019-01-04T15:57:40.882Z,11.80
2019-01-04T16:00:11.536Z,8.57
2019-01-04T16:02:44.446Z,7.37
2019-01-04T16:05:12.917Z,8.73
2019-01-04T16:07:41.410Z,10.77
2019-01-04T16:10:10.049Z,9.63
2019-01-04T16:12:39.188Z,9.73
2019-01-04T16:15:08.654Z,7.57
2019-01-04T16:17:37.837Z,11.13
2019-01-04T16:20:08.329Z,8.80
2019-01-04T16:22:36.452Z,8.60
2019-01-04T16:25:05.040Z,8.13
2019-01-04T16:27:32.192Z,8.30
2019-01-04T16:29:59.378Z,8.23
2019-01-04T16:32:26.613Z,7.47
2019-01-04T16:34:54.594Z,7.93
2019-01-04T16:37:21.959Z,8.50
2019-01-04T16:39:49.771Z,9.97
2019-01-04T16:42:17.353Z,11.43
2019-01-04T16:44:44.862Z,8.27
2019-01-04T16:47:11.973Z,7.90
2019-01-04T16:52:16.231Z,8.17
2019-01-04T16:54:45.679Z,9.07
2019-01-04T16:57:21.019Z,94.80
2019-01-04T17:07:21.528Z,13.77
2019-01-04T17:18:31.112Z,15.93
2019-01-04T17:22:38.754Z,12.67
2019-01-04T17:25:08.409Z,13.10
2019-01-04T17:31:23.842Z,13.23
2019-01-04T17:33:52.727Z,14.37
2019-01-04T17:36:20.726Z,14.13
2019-01-04T17:38:48.772Z,13.20
2019-01-04T17:41:17.784Z,19.50
2019-01-04T17:43:46.188Z,13.37
2019-01-04T17:46:14.779Z,14.90
2019-01-04T17:48:42.722Z,14.23
2019-01-04T17:51:11.603Z,16.33
2019-01-04T17:53:54.607Z,13.43
2019-01-04T17:56:23.383Z,13.57
2019-01-04T17:58:51.822Z,15.07
2019-01-04T18:01:20.190Z,14.93
2019-01-04T18:03:48.531Z,14.87
2019-01-04T18:06:17.137Z,16.37
2019-01-04T18:08:45.752Z,15.43
2019-01-04T18:11:15.093Z,13.67
2019-01-04T18:14:26.882Z,16.83
2019-01-04T18:17:15.046Z,15.50
2019-01-04T18:27:59.824Z,29.27
2019-01-04T18:30:40.703Z,22.90
2019-01-04T18:33:07.934Z,32.13
2019-01-04T18:35:35.509Z,21.13
2019-01-04T18:38:03.169Z,17.27
2019-01-04T18:40:32.291Z,18.23
2019-01-04T18:43:00.524Z,15.73
2019-01-04T18:45:28.257Z,17.53
2019-01-04T18:47:56.013Z,18.07
2019-01-04T18:50:23.294Z,16.87
2019-01-04T18:52:50.723Z,17.83
2019-01-04T18:55:19.024Z,20.27
2019-01-04T18:57:46.738Z,19.33
2019-01-04T19:00:13.866Z,27.13
2019-01-04T19:02:41.456Z,23.60
2019-01-04T19:05:09.074Z,29.37
2019-01-04T19:07:36.484Z,19.63
2019-01-04T19:10:05.925Z,22.13
2019-01-04T19:12:33.336Z,15.73
2019-01-04T19:15:00.756Z,16.67
2019-01-04T19:17:28.690Z,21.13
2019-01-04T19:19:56.230Z,22.40
2019-01-04T19:22:23.797Z,22.60
2019-01-04T19:24:51.638Z,16.73
2019-01-04T19:27:18.870Z,19.83
2019-01-04T19:29:46.423Z,19.27
2019-01-04T19:32:13.692Z,17.87
2019-01-04T19:34:41.508Z,18.90
2019-01-04T19:37:11.986Z,18.43
2019-01-04T19:39:39.301Z,18.20
2019-01-04T19:42:06.943Z,16.97
2019-01-04T19:44:34.352Z,18.37
2019-01-04T19:47:02.613Z,17.33
2019-01-04T19:49:30.285Z,19.20
2019-01-04T19:51:57.410Z,21.23
2019-01-04T19:54:25.278Z,19.30
2019-01-04T19:56:52.988Z,20.77
2019-01-04T19:59:24.402Z,20.63
2019-01-04T20:01:52.005Z,19.30
2019-01-04T20:04:19.323Z,19.83
2019-01-04T20:08:10.228Z,21.37
2019-01-04T20:11:59.688Z,19.93
2019-01-04T20:15:24.794Z,20.87
2019-01-04T20:18:18.346Z,21.67
2019-01-04T20:21:17.857Z,24.20
2019-01-04T20:24:22.967Z,23.20
2019-01-04T20:27:22.078Z,21.87
2019-01-04T20:30:21.621Z,19.83
2019-01-04T20:33:06.974Z,21.57
2019-01-04T20:35:52.967Z,24.73
2019-01-04T20:38:42.511Z,22.87
2019-01-04T20:41:31.773Z,24.40
2019-01-04T20:44:19.963Z,27.13
2019-01-04T20:47:17.898Z,24.43
2019-01-04T20:49:59.407Z,24.77
2019-01-04T20:52:52.487Z,26.03
2019-01-04T20:55:42.725Z,28.33
2019-01-04T20:58:41.606Z,26.93
2019-01-04T21:01:24.333Z,23.23
2019-01-04T21:04:11.073Z,29.93
2019-01-04T21:06:57.175Z,29.27
2019-01-04T21:09:56.458Z,31.53
2019-01-04T21:12:49.264Z,28.30
2019-01-04T21:15:36.071Z,32.07
2019-01-04T21:18:38.592Z,32.30
2019-01-04T21:21:24.428Z,27.00
2019-01-04T21:24:10.471Z,34.13
2019-01-04T21:26:56.212Z,34.20
2019-01-04T21:29:46.738Z,29.50
2019-01-04T21:32:32.291Z,28.53
2019-01-04T21:35:18.247Z,29.23
2019-01-04T21:38:04.916Z,30.67
2019-01-04T21:40:52.229Z,25.57
2019-01-04T21:43:42.188Z,26.73
2019-01-04T21:46:28.314Z,33.97
2019-01-04T21:49:27.456Z,30.47
2019-01-04T21:52:13.141Z,32.53
2019-01-04T21:54:56.907Z,28.50
2019-01-04T21:57:43.057Z,29.73
2019-01-04T22:00:29.565Z,27.43
2019-01-04T22:03:15.517Z,30.00
2019-01-04T22:06:18.063Z,25.80
2019-01-04T22:09:19.551Z,30.13
2019-01-04T22:12:16.613Z,28.03
2019-01-04T22:15:01.957Z,28.77
2019-01-04T22:17:47.995Z,30.80
2019-01-04T22:20:44.205Z,30.37
2019-01-04T22:23:37.346Z,27.27
2019-01-04T22:26:23.059Z,27.57
2019-01-04T22:29:08.960Z,24.40
2019-01-04T22:31:54.850Z,24.20
2019-01-04T22:34:44.668Z,22.93
2019-01-04T22:37:30.742Z,24.23
2019-01-04T22:40:16.651Z,20.17
2019-01-04T22:43:02.045Z,27.20
2019-01-04T22:45:48.193Z,25.00
2019-01-04T22:48:28.557Z,25.27
2019-01-04T22:51:14.488Z,27.27
2019-01-04T22:54:01.297Z,22.97
2019-01-04T22:56:47.410Z,21.47
2019-01-04T22:59:33.696Z,25.47
2019-01-04T23:02:19.371Z,24.57
2019-01-04T23:05:04.350Z,22.90
2019-01-04T23:07:57.175Z,20.23
2019-01-04T23:10:44.010Z,22.37
2019-01-04T23:13:24.589Z,25.17
2019-01-04T23:16:14.721Z,21.63
2019-01-04T23:19:00.954Z,20.57
2019-01-04T23:22:52.217Z,23.33
2019-01-04T23:25:43.548Z,21.13
2019-01-04T23:28:29.314Z,22.07
2019-01-04T23:31:08.833Z,17.33
2019-01-04T23:33:58.875Z,19.93
2019-01-04T23:36:49.257Z,21.30
2019-01-04T23:39:42.754Z,17.87
2019-01-04T23:42:32.576Z,19.40
2019-01-04T23:45:25.537Z,19.33
2019-01-04T23:48:19.171Z,18.20
2019-01-04T23:51:01.927Z,18.70
2019-01-04T23:53:50.279Z,16.67
2019-01-04T23:56:41.196Z,17.77
2019-01-04T23:59:26.873Z,17.23
